Koyo — JD2279 — position and weather

sailwx.info

Track history (hours):
 
Tides and Currents Weather Stations Pressure Air Temp Water Temp Dewpoint Dewpoint Depression Visibility Wind Speed Wind Dir Waves Ship Positions

Koyo

Last reported at 2016-May-30 05:33 UTC. Time now 2016-May-31 04:00 UTC.
Position N 34°38' E 134°59'.

Length 80 m; draft 3.7 m.

Type: Cargo ship. MMSI: 431301812.

Date/timePositionNaut miles runAvg speedWind from/ knotsBaromVisibWave heightAir tempDewpointWater temp
2016-May-30 05:33N 34°38' E 134°59'1313.4
2016-May-30 04:33N 34°36' E 135°15'8 8.0
2016-May-30 03:31N 34°38' E 135°25'0 0.0
2016-May-30 02:33N 34°38' E 135°25'9 7.6
2016-May-30 01:22N 34°40' E 135°14'0 0.0
2016-May-30 00:22N 34°40' E 135°14'0 0.0
2016-May-29 23:22N 34°40' E 135°14'1 0.9
2016-May-29 22:16N 34°39' E 135°15'1 1.4
2016-May-29 21:33N 34°38' E 135°15'1111.4
2016-May-29 20:33N 34°27' E 135°09'1111.1
2016-May-29 19:32N 34°19' E 135°00'  
2016-May-27 05:19N 34°10' E 134°56'1213.3
2016-May-27 04:27N 34°21' E 135°00'1112.5
2016-May-27 03:33N 34°29' E 135°09'1111.2
2016-May-27 02:34N 34°40' E 135°14'0 0.1
2016-May-27 01:29N 34°40' E 135°14'0 0.0
2016-May-27 00:29N 34°40' E 135°14'0 0.1
2016-May-26 23:29N 34°39' E 135°14'1 0.8
2016-May-26 22:31N 34°39' E 135°15'0 0.1
2016-May-26 21:30N 34°39' E 135°15'9 9.0
2016-May-26 20:33N 34°35' E 135°06'14 0.3
2016-May-25 05:33N 34°35' E 134°49'1110.6
2016-May-25 04:33N 34°37' E 135°02'1111.0
2016-May-25 03:33N 34°39' E 135°15'1 0.8
2016-May-25 02:33N 34°40' E 135°14'0 0.0
2016-May-25 01:27N 34°40' E 135°14'1 0.9
2016-May-25 00:33N 34°39' E 135°15'0 0.4
2016-May-24 23:34N 34°39' E 135°15'1010.2
2016-May-24 22:34N 34°36' E 135°03'1211.6
2016-May-24 21:32N 34°33' E 134°49'4 0.1
2016-May-23 07:31N 34°32' E 134°44'1010.9
2016-May-23 06:33N 34°36' E 134°56'8 8.1
2016-May-23 05:33N 34°36' E 135°06'1211.8
2016-May-23 04:33N 34°37' E 135°20'5 4.5
2016-May-23 03:32N 34°38' E 135°25'7 7.3
2016-May-23 02:34N 34°38' E 135°17'2 1.9
2016-May-23 01:30N 34°39' E 135°15'0 0.0
2016-May-23 00:30N 34°39' E 135°15'0 0.0
2016-May-22 23:30N 34°39' E 135°14'2 2.5
2016-May-22 22:33N 34°41' E 135°13'0 0.0
2016-May-22 21:30N 34°41' E 135°13'0 0.0
2016-May-22 20:30N 34°41' E 135°13'0 0.0
2016-May-22 19:30N 34°41' E 135°13'0 0.0
2016-May-22 18:24N 34°41' E 135°13'0 0.0
2016-May-22 17:30N 34°41' E 135°13'0 0.0
2016-May-22 16:30N 34°41' E 135°13'0 0.0
2016-May-22 15:06N 34°41' E 135°13'0 0.0
2016-May-22 14:24N 34°41' E 135°13'0 0.0
2016-May-22 13:24N 34°41' E 135°13'0 0.0
2016-May-22 12:24N 34°41' E 135°13'0 0.0
2016-May-22 11:30N 34°41' E 135°13'0 0.0
2016-May-22 10:30N 34°41' E 135°13'0 0.0
2016-May-22 08:30N 34°41' E 135°13'0 0.0
2016-May-22 07:24N 34°41' E 135°13'0 0.0
2016-May-22 06:30N 34°41' E 135°13'0 0.0
2016-May-22 05:30N 34°41' E 135°13'0 0.0
2016-May-22 04:24N 34°41' E 135°13'0 0.0
2016-May-22 03:24N 34°41' E 135°13'0 0.0
2016-May-22 02:24N 34°41' E 135°13'0 0.0
2016-May-22 01:24N 34°41' E 135°13'0 0.0
2016-May-22 00:30N 34°41' E 135°13'0 0.0
2016-May-21 23:24N 34°41' E 135°13'0 0.0
2016-May-21 22:24N 34°41' E 135°13'0 0.0
2016-May-21 21:23N 34°41' E 135°13'0 0.0
2016-May-21 20:29N 34°41' E 135°13'0 0.0
2016-May-21 19:29N 34°41' E 135°13'0 0.0
2016-May-21 18:23N 34°41' E 135°13'0 0.0
2016-May-21 17:23N 34°41' E 135°13'0 0.0
2016-May-21 16:29N 34°41' E 135°13'4 4.6
2016-May-21 15:33N 34°37' E 135°14'1110.8
2016-May-21 14:33N 34°37' E 135°01'31 1.5
2016-May-20 18:06N 34°08' E 134°47'712.1
2016-May-20 17:32N 34°11' E 134°54'1212.1
2016-May-20 16:32N 34°22' E 135°01'1212.3
2016-May-20 15:33N 34°32' E 135°09'9 7.5
2016-May-20 14:23N 34°39' E 135°14'0 0.0
2016-May-20 13:29N 34°39' E 135°14'0 0.0
2016-May-20 12:29N 34°39' E 135°14'0 0.0
2016-May-20 11:29N 34°39' E 135°14'0 0.0
2016-May-20 10:29N 34°39' E 135°14'5 5.8
2016-May-20 09:33N 34°39' E 135°21'2 1.9
2016-May-20 08:33N 34°37' E 135°23'7 7.0
2016-May-20 07:33N 34°39' E 135°14'0 0.0
2016-May-20 06:33N 34°39' E 135°14'  
Track history (hours):
 
Tides and Currents Weather Stations Pressure Air Temp Water Temp Dewpoint Dewpoint Depression Visibility Wind Speed Wind Dir Waves Ship Positions

Koyo

Last reported at 2016-May-30 05:33 UTC. Time now 2016-May-31 04:00 UTC.
Position N 34°38' E 134°59'.

Length 80 m; draft 3.7 m.

Type: Cargo ship. MMSI: 431301812.

Date/timePositionNaut miles runAvg speedWind from/ knotsBaromVisibWave heightAir tempDewpointWater temp
2016-May-30 05:33N 34°38' E 134°59'1313.4
2016-May-30 04:33N 34°36' E 135°15'8 8.0
2016-May-30 03:31N 34°38' E 135°25'0 0.0
2016-May-30 02:33N 34°38' E 135°25'9 7.6
2016-May-30 01:22N 34°40' E 135°14'0 0.0
2016-May-30 00:22N 34°40' E 135°14'0 0.0
2016-May-29 23:22N 34°40' E 135°14'1 0.9
2016-May-29 22:16N 34°39' E 135°15'1 1.4
2016-May-29 21:33N 34°38' E 135°15'1111.4
2016-May-29 20:33N 34°27' E 135°09'1111.1
2016-May-29 19:32N 34°19' E 135°00'  
2016-May-27 05:19N 34°10' E 134°56'1213.3
2016-May-27 04:27N 34°21' E 135°00'1112.5
2016-May-27 03:33N 34°29' E 135°09'1111.2
2016-May-27 02:34N 34°40' E 135°14'0 0.1
2016-May-27 01:29N 34°40' E 135°14'0 0.0
2016-May-27 00:29N 34°40' E 135°14'0 0.1
2016-May-26 23:29N 34°39' E 135°14'1 0.8
2016-May-26 22:31N 34°39' E 135°15'0 0.1
2016-May-26 21:30N 34°39' E 135°15'9 9.0
2016-May-26 20:33N 34°35' E 135°06'14 0.3
2016-May-25 05:33N 34°35' E 134°49'1110.6
2016-May-25 04:33N 34°37' E 135°02'1111.0
2016-May-25 03:33N 34°39' E 135°15'1 0.8
2016-May-25 02:33N 34°40' E 135°14'0 0.0
2016-May-25 01:27N 34°40' E 135°14'1 0.9
2016-May-25 00:33N 34°39' E 135°15'0 0.4
2016-May-24 23:34N 34°39' E 135°15'1010.2
2016-May-24 22:34N 34°36' E 135°03'1211.6
2016-May-24 21:32N 34°33' E 134°49'4 0.1
2016-May-23 07:31N 34°32' E 134°44'1010.9
2016-May-23 06:33N 34°36' E 134°56'8 8.1
2016-May-23 05:33N 34°36' E 135°06'1211.8
2016-May-23 04:33N 34°37' E 135°20'5 4.5
2016-May-23 03:32N 34°38' E 135°25'7 7.3
2016-May-23 02:34N 34°38' E 135°17'2 1.9
2016-May-23 01:30N 34°39' E 135°15'0 0.0
2016-May-23 00:30N 34°39' E 135°15'0 0.0
2016-May-22 23:30N 34°39' E 135°14'2 2.5
2016-May-22 22:33N 34°41' E 135°13'0 0.0
2016-May-22 21:30N 34°41' E 135°13'0 0.0
2016-May-22 20:30N 34°41' E 135°13'0 0.0
2016-May-22 19:30N 34°41' E 135°13'0 0.0
2016-May-22 18:24N 34°41' E 135°13'0 0.0
2016-May-22 17:30N 34°41' E 135°13'0 0.0
2016-May-22 16:30N 34°41' E 135°13'0 0.0
2016-May-22 15:06N 34°41' E 135°13'0 0.0
2016-May-22 14:24N 34°41' E 135°13'0 0.0
2016-May-22 13:24N 34°41' E 135°13'0 0.0
2016-May-22 12:24N 34°41' E 135°13'0 0.0
2016-May-22 11:30N 34°41' E 135°13'0 0.0
2016-May-22 10:30N 34°41' E 135°13'0 0.0
2016-May-22 08:30N 34°41' E 135°13'0 0.0
2016-May-22 07:24N 34°41' E 135°13'0 0.0
2016-May-22 06:30N 34°41' E 135°13'0 0.0
2016-May-22 05:30N 34°41' E 135°13'0 0.0
2016-May-22 04:24N 34°41' E 135°13'0 0.0
2016-May-22 03:24N 34°41' E 135°13'0 0.0
2016-May-22 02:24N 34°41' E 135°13'0 0.0
2016-May-22 01:24N 34°41' E 135°13'0 0.0
2016-May-22 00:30N 34°41' E 135°13'0 0.0
2016-May-21 23:24N 34°41' E 135°13'0 0.0
2016-May-21 22:24N 34°41' E 135°13'0 0.0
2016-May-21 21:23N 34°41' E 135°13'0 0.0
2016-May-21 20:29N 34°41' E 135°13'0 0.0
2016-May-21 19:29N 34°41' E 135°13'0 0.0
2016-May-21 18:23N 34°41' E 135°13'0 0.0
2016-May-21 17:23N 34°41' E 135°13'0 0.0
2016-May-21 16:29N 34°41' E 135°13'4 4.6
2016-May-21 15:33N 34°37' E 135°14'1110.8
2016-May-21 14:33N 34°37' E 135°01'31 1.5
2016-May-20 18:06N 34°08' E 134°47'712.1
2016-May-20 17:32N 34°11' E 134°54'1212.1
2016-May-20 16:32N 34°22' E 135°01'1212.3
2016-May-20 15:33N 34°32' E 135°09'9 7.5
2016-May-20 14:23N 34°39' E 135°14'0 0.0
2016-May-20 13:29N 34°39' E 135°14'0 0.0
2016-May-20 12:29N 34°39' E 135°14'0 0.0
2016-May-20 11:29N 34°39' E 135°14'0 0.0
2016-May-20 10:29N 34°39' E 135°14'5 5.8
2016-May-20 09:33N 34°39' E 135°21'2 1.9
2016-May-20 08:33N 34°37' E 135°23'7 7.0
2016-May-20 07:33N 34°39' E 135°14'0 0.0
2016-May-20 06:33N 34°39' E 135°14'  

Dump ship's entire track history